Startpagina
METAR-TAF:

METAR-TAF

Vliegvelden :

Lviv, Oekraïne

breedte: 49-49N, lengte: 023-57E, hoogte: 319 m

Actueel weer

Dit bericht is 15 minuten geleden gemaakt, om 09:00 UTC
Wind 8 kt uit het zuiden, variërend tussen het zuidoosten en het zuidwesten
Temperatuur 26°C
Vochtigheid 51%
Druk 1017 hPa
Zicht 10 km of meer
geen wolken onder 1500 m en geen cumulonimbus

METAR: UKLL 250900Z 17004MPS 140V220 CAVOK 26/15 Q1017 R13/D NOSIG

Tijdstip: 12:15 (09:15 UTC)

Verwachting

Dit bericht is 4 uur en het 13 minuten geleden gemaakt, om 05:02 UTC
Verwachting geldig van 25 om 06 UTC tot 26 om 06 UTC
Wind 10 kt uit het zuidzuidoosten
Zicht 10 km of meer
Verspreide wolken op 2500 ft
Tijdelijke
van 25 om 12 UTC tot 26 om 06 UTC
Wind 8 kt uit het oostzuidoosten
Verspreide wolken op 3000 ft, Cumulonimbus.

TAF: UKLL 250502Z 2506/2606 15005MPS 9999 SCT025 TX28/2512Z TN18/2603Z TEMPO 2512/2606 11004MPS SCT030CB

Waarnemingen en weersverwachtingen van meer dan 4000 vliegvelden (METAR en TAF).

De beschikbare stations zijn de gele en rode punten op de kaart.

Ga met uw muis naar het station om de naam te zien.

Klik dan om waarnemingen en weersverwachtingen te zien.

kaart wijzigen: klik op de groene knoppen met een zwart kruis om in te zoomen, op de groene knop met een streepje om uit te zoomen of op de groene pijlen voor aangrenzende kaarten.


METAR-TAF: